sensor_id;sensor_type;location;lat;lon;timestamp;temperature;humidity
23160;DHT22;11748;50.844;4.396;2023-03-31T00:00:52;14.00;99.90
23160;DHT22;11748;50.844;4.396;2023-03-31T00:03:17;14.00;99.90
23160;DHT22;11748;50.844;4.396;2023-03-31T00:05:46;14.00;99.90
23160;DHT22;11748;50.844;4.396;2023-03-31T00:08:13;14.00;99.90
23160;DHT22;11748;50.844;4.396;2023-03-31T00:10:43;14.10;99.90
23160;DHT22;11748;50.844;4.396;2023-03-31T00:13:10;14.00;99.90
23160;DHT22;11748;50.844;4.396;2023-03-31T00:15:36;14.00;99.90
23160;DHT22;11748;50.844;4.396;2023-03-31T00:18:02;13.90;99.90
23160;DHT22;11748;50.844;4.396;2023-03-31T00:20:28;14.00;99.90
23160;DHT22;11748;50.844;4.396;2023-03-31T00:22:55;13.80;99.90
23160;DHT22;11748;50.844;4.396;2023-03-31T00:25:22;13.60;99.90
23160;DHT22;11748;50.844;4.396;2023-03-31T00:27:48;13.30;99.90
23160;DHT22;11748;50.844;4.396;2023-03-31T00:30:18;13.40;99.90
23160;DHT22;11748;50.844;4.396;2023-03-31T00:32:44;13.50;99.90
23160;DHT22;11748;50.844;4.396;2023-03-31T00:35:10;13.30;99.90
23160;DHT22;11748;50.844;4.396;2023-03-31T00:37:36;13.30;99.90
23160;DHT22;11748;50.844;4.396;2023-03-31T00:40:03;13.40;99.90
23160;DHT22;11748;50.844;4.396;2023-03-31T00:42:40;13.30;99.90
23160;DHT22;11748;50.844;4.396;2023-03-31T00:45:24;13.30;99.90
23160;DHT22;11748;50.844;4.396;2023-03-31T00:48:02;13.50;99.90
23160;DHT22;11748;50.844;4.396;2023-03-31T00:50:34;13.50;99.90
23160;DHT22;11748;50.844;4.396;2023-03-31T00:53:06;13.50;99.90
23160;DHT22;11748;50.844;4.396;2023-03-31T00:55:38;13.50;99.90
23160;DHT22;11748;50.844;4.396;2023-03-31T00:58:05;13.40;99.90
23160;DHT22;11748;50.844;4.396;2023-03-31T01:00:31;13.30;99.90
23160;DHT22;11748;50.844;4.396;2023-03-31T01:03:01;13.30;99.90
23160;DHT22;11748;50.844;4.396;2023-03-31T01:05:48;13.30;99.90
23160;DHT22;11748;50.844;4.396;2023-03-31T01:08:19;13.30;99.90
23160;DHT22;11748;50.844;4.396;2023-03-31T01:10:53;13.20;99.90
23160;DHT22;11748;50.844;4.396;2023-03-31T01:13:20;13.20;99.90
23160;DHT22;11748;50.844;4.396;2023-03-31T01:15:47;13.30;99.90
23160;DHT22;11748;50.844;4.396;2023-03-31T01:18:13;13.30;99.90
23160;DHT22;11748;50.844;4.396;2023-03-31T01:24:13;13.20;99.90
23160;DHT22;11748;50.844;4.396;2023-03-31T01:32:21;13.20;99.90
23160;DHT22;11748;50.844;4.396;2023-03-31T01:46:32;13.30;99.90
23160;DHT22;11748;50.844;4.396;2023-03-31T01:51:51;13.20;99.90
23160;DHT22;11748;50.844;4.396;2023-03-31T01:54:47;13.20;99.90
23160;DHT22;11748;50.844;4.396;2023-03-31T01:57:38;13.30;99.90
23160;DHT22;11748;50.844;4.396;2023-03-31T02:00:11;13.10;99.90
23160;DHT22;11748;50.844;4.396;2023-03-31T02:02:50;13.10;99.90
23160;DHT22;11748;50.844;4.396;2023-03-31T02:05:23;13.10;99.90
23160;DHT22;11748;50.844;4.396;2023-03-31T02:07:54;13.20;99.90
23160;DHT22;11748;50.844;4.396;2023-03-31T02:10:23;13.20;99.90
23160;DHT22;11748;50.844;4.396;2023-03-31T02:12:50;13.20;99.90
23160;DHT22;11748;50.844;4.396;2023-03-31T02:15:24;13.20;99.90
23160;DHT22;11748;50.844;4.396;2023-03-31T02:17:55;13.00;99.90
23160;DHT22;11748;50.844;4.396;2023-03-31T02:20:23;12.80;99.90
23160;DHT22;11748;50.844;4.396;2023-03-31T02:22:54;12.90;99.90
23160;DHT22;11748;50.844;4.396;2023-03-31T02:25:51;12.80;99.90
23160;DHT22;11748;50.844;4.396;2023-03-31T02:28:23;12.80;99.90
23160;DHT22;11748;50.844;4.396;2023-03-31T02:33:28;13.00;99.90
23160;DHT22;11748;50.844;4.396;2023-03-31T02:35:53;13.00;99.90
23160;DHT22;11748;50.844;4.396;2023-03-31T02:38:21;12.90;99.90
23160;DHT22;11748;50.844;4.396;2023-03-31T02:40:47;12.70;99.90
23160;DHT22;11748;50.844;4.396;2023-03-31T02:43:13;12.70;99.90
23160;DHT22;11748;50.844;4.396;2023-03-31T02:45:47;12.80;99.90
23160;DHT22;11748;50.844;4.396;2023-03-31T02:48:20;12.90;99.90
23160;DHT22;11748;50.844;4.396;2023-03-31T03:07:54;12.90;99.90
23160;DHT22;11748;50.844;4.396;2023-03-31T03:10:48;13.00;99.90
23160;DHT22;11748;50.844;4.396;2023-03-31T03:16:07;13.00;99.90
23160;DHT22;11748;50.844;4.396;2023-03-31T03:18:35;13.00;99.90
23160;DHT22;11748;50.844;4.396;2023-03-31T03:21:01;13.00;99.90
23160;DHT22;11748;50.844;4.396;2023-03-31T03:23:27;12.90;99.90
23160;DHT22;11748;50.844;4.396;2023-03-31T03:25:53;12.80;99.90
23160;DHT22;11748;50.844;4.396;2023-03-31T03:28:19;12.90;99.90
23160;DHT22;11748;50.844;4.396;2023-03-31T03:30:44;12.80;99.90
23160;DHT22;11748;50.844;4.396;2023-03-31T03:33:10;12.70;99.90
23160;DHT22;11748;50.844;4.396;2023-03-31T03:35:42;12.60;99.90
23160;DHT22;11748;50.844;4.396;2023-03-31T03:38:09;12.60;99.90
23160;DHT22;11748;50.844;4.396;2023-03-31T03:40:35;12.30;99.90
23160;DHT22;11748;50.844;4.396;2023-03-31T03:43:01;12.00;99.90
23160;DHT22;11748;50.844;4.396;2023-03-31T03:45:27;12.00;99.90
23160;DHT22;11748;50.844;4.396;2023-03-31T03:47:53;11.90;99.90
23160;DHT22;11748;50.844;4.396;2023-03-31T03:50:18;12.00;99.90
23160;DHT22;11748;50.844;4.396;2023-03-31T03:52:56;11.70;99.90
23160;DHT22;11748;50.844;4.396;2023-03-31T03:55:22;11.40;99.90
23160;DHT22;11748;50.844;4.396;2023-03-31T03:57:48;11.30;99.90
23160;DHT22;11748;50.844;4.396;2023-03-31T04:00:13;11.10;99.90
23160;DHT22;11748;50.844;4.396;2023-03-31T04:02:39;11.10;99.90
23160;DHT22;11748;50.844;4.396;2023-03-31T04:05:05;11.10;99.90
23160;DHT22;11748;50.844;4.396;2023-03-31T04:07:31;11.30;99.90
23160;DHT22;11748;50.844;4.396;2023-03-31T04:09:56;11.50;99.90
23160;DHT22;11748;50.844;4.396;2023-03-31T04:12:22;11.60;99.90
23160;DHT22;11748;50.844;4.396;2023-03-31T04:14:48;11.60;99.90
23160;DHT22;11748;50.844;4.396;2023-03-31T04:17:13;11.60;99.90
23160;DHT22;11748;50.844;4.396;2023-03-31T04:19:40;11.70;99.90
23160;DHT22;11748;50.844;4.396;2023-03-31T04:22:07;11.80;99.90
23160;DHT22;11748;50.844;4.396;2023-03-31T04:24:36;11.80;99.90
23160;DHT22;11748;50.844;4.396;2023-03-31T04:27:03;11.90;99.90
23160;DHT22;11748;50.844;4.396;2023-03-31T04:29:32;11.90;99.90
23160;DHT22;11748;50.844;4.396;2023-03-31T04:31:58;12.00;99.90
23160;DHT22;11748;50.844;4.396;2023-03-31T04:34:26;12.00;99.90
23160;DHT22;11748;50.844;4.396;2023-03-31T04:36:59;12.00;99.90
23160;DHT22;11748;50.844;4.396;2023-03-31T04:39:28;12.10;99.90
23160;DHT22;11748;50.844;4.396;2023-03-31T04:41:56;12.10;99.90
23160;DHT22;11748;50.844;4.396;2023-03-31T04:44:22;12.10;99.90
23160;DHT22;11748;50.844;4.396;2023-03-31T04:46:48;12.10;99.90
23160;DHT22;11748;50.844;4.396;2023-03-31T04:49:14;12.10;99.90
23160;DHT22;11748;50.844;4.396;2023-03-31T04:51:41;12.00;99.90
23160;DHT22;11748;50.844;4.396;2023-03-31T04:54:06;12.10;99.90
23160;DHT22;11748;50.844;4.396;2023-03-31T04:56:32;12.10;99.90
23160;DHT22;11748;50.844;4.396;2023-03-31T04:58:58;12.20;99.90
23160;DHT22;11748;50.844;4.396;2023-03-31T05:01:24;12.10;99.90
23160;DHT22;11748;50.844;4.396;2023-03-31T05:03:49;12.10;99.90
23160;DHT22;11748;50.844;4.396;2023-03-31T05:06:16;12.10;99.90
23160;DHT22;11748;50.844;4.396;2023-03-31T05:08:42;12.10;99.90
23160;DHT22;11748;50.844;4.396;2023-03-31T05:11:08;12.20;99.90
23160;DHT22;11748;50.844;4.396;2023-03-31T05:13:35;12.30;99.90
23160;DHT22;11748;50.844;4.396;2023-03-31T05:16:09;12.30;99.90
23160;DHT22;11748;50.844;4.396;2023-03-31T05:18:35;12.30;99.90
23160;DHT22;11748;50.844;4.396;2023-03-31T05:21:14;12.30;99.90
23160;DHT22;11748;50.844;4.396;2023-03-31T05:23:41;12.40;99.90
23160;DHT22;11748;50.844;4.396;2023-03-31T05:26:07;12.30;99.90
23160;DHT22;11748;50.844;4.396;2023-03-31T05:28:35;12.40;99.90
23160;DHT22;11748;50.844;4.396;2023-03-31T05:31:03;12.30;99.90
23160;DHT22;11748;50.844;4.396;2023-03-31T05:33:28;12.40;99.90
23160;DHT22;11748;50.844;4.396;2023-03-31T05:35:55;12.30;99.90
23160;DHT22;11748;50.844;4.396;2023-03-31T05:38:21;12.30;99.90
23160;DHT22;11748;50.844;4.396;2023-03-31T05:40:47;12.30;99.90
23160;DHT22;11748;50.844;4.396;2023-03-31T05:43:13;12.30;99.90
23160;DHT22;11748;50.844;4.396;2023-03-31T05:45:39;12.20;99.90
23160;DHT22;11748;50.844;4.396;2023-03-31T05:48:05;12.10;99.90
23160;DHT22;11748;50.844;4.396;2023-03-31T05:50:32;12.20;99.90
23160;DHT22;11748;50.844;4.396;2023-03-31T05:52:58;12.30;99.90
23160;DHT22;11748;50.844;4.396;2023-03-31T05:55:25;12.30;99.90
23160;DHT22;11748;50.844;4.396;2023-03-31T05:57:50;12.40;99.90
23160;DHT22;11748;50.844;4.396;2023-03-31T06:00:16;12.40;99.90
23160;DHT22;11748;50.844;4.396;2023-03-31T06:02:43;12.40;99.90
23160;DHT22;11748;50.844;4.396;2023-03-31T06:05:08;12.40;99.90
23160;DHT22;11748;50.844;4.396;2023-03-31T06:07:34;12.50;99.90
23160;DHT22;11748;50.844;4.396;2023-03-31T06:10:01;12.50;99.90
23160;DHT22;11748;50.844;4.396;2023-03-31T06:12:27;12.60;99.90
23160;DHT22;11748;50.844;4.396;2023-03-31T06:14:53;12.60;99.90
23160;DHT22;11748;50.844;4.396;2023-03-31T06:17:18;12.70;99.90
23160;DHT22;11748;50.844;4.396;2023-03-31T06:19:45;12.80;99.90
23160;DHT22;11748;50.844;4.396;2023-03-31T06:22:11;12.80;99.90
23160;DHT22;11748;50.844;4.396;2023-03-31T06:24:37;12.80;99.90
23160;DHT22;11748;50.844;4.396;2023-03-31T06:27:05;12.70;99.90
23160;DHT22;11748;50.844;4.396;2023-03-31T06:29:31;12.70;99.90
23160;DHT22;11748;50.844;4.396;2023-03-31T06:31:57;12.80;99.90
23160;DHT22;11748;50.844;4.396;2023-03-31T06:34:23;12.90;99.90
23160;DHT22;11748;50.844;4.396;2023-03-31T06:36:48;12.90;99.90
23160;DHT22;11748;50.844;4.396;2023-03-31T06:39:14;13.00;99.90
23160;DHT22;11748;50.844;4.396;2023-03-31T06:41:40;13.00;99.90
23160;DHT22;11748;50.844;4.396;2023-03-31T06:44:06;13.10;99.90
23160;DHT22;11748;50.844;4.396;2023-03-31T06:46:31;13.20;99.90
23160;DHT22;11748;50.844;4.396;2023-03-31T06:48:57;13.20;99.90
23160;DHT22;11748;50.844;4.396;2023-03-31T06:51:23;13.30;99.90
23160;DHT22;11748;50.844;4.396;2023-03-31T06:53:48;13.30;99.90
23160;DHT22;11748;50.844;4.396;2023-03-31T06:56:14;13.40;99.90
23160;DHT22;11748;50.844;4.396;2023-03-31T06:58:40;13.40;99.90
23160;DHT22;11748;50.844;4.396;2023-03-31T07:01:06;13.40;99.90
23160;DHT22;11748;50.844;4.396;2023-03-31T07:03:32;13.30;99.90
23160;DHT22;11748;50.844;4.396;2023-03-31T07:05:58;13.30;99.90
23160;DHT22;11748;50.844;4.396;2023-03-31T07:08:24;13.40;99.90
23160;DHT22;11748;50.844;4.396;2023-03-31T07:10:57;13.50;99.90
23160;DHT22;11748;50.844;4.396;2023-03-31T07:13:23;13.50;99.90
23160;DHT22;11748;50.844;4.396;2023-03-31T07:15:50;13.50;99.90
23160;DHT22;11748;50.844;4.396;2023-03-31T07:18:17;13.50;99.90
23160;DHT22;11748;50.844;4.396;2023-03-31T07:20:47;13.50;99.90
23160;DHT22;11748;50.844;4.396;2023-03-31T07:23:14;13.50;99.90
23160;DHT22;11748;50.844;4.396;2023-03-31T07:25:40;13.60;99.90
23160;DHT22;11748;50.844;4.396;2023-03-31T07:28:06;13.70;99.90
23160;DHT22;11748;50.844;4.396;2023-03-31T07:30:32;13.70;99.90
23160;DHT22;11748;50.844;4.396;2023-03-31T07:32:58;13.60;99.90
23160;DHT22;11748;50.844;4.396;2023-03-31T07:35:24;13.60;99.90
23160;DHT22;11748;50.844;4.396;2023-03-31T07:37:51;13.60;99.90
23160;DHT22;11748;50.844;4.396;2023-03-31T07:40:22;13.50;99.90
23160;DHT22;11748;50.844;4.396;2023-03-31T07:42:51;13.40;99.90
23160;DHT22;11748;50.844;4.396;2023-03-31T07:45:18;13.00;99.90
23160;DHT22;11748;50.844;4.396;2023-03-31T07:47:45;13.10;99.90
23160;DHT22;11748;50.844;4.396;2023-03-31T07:50:12;13.20;99.90
23160;DHT22;11748;50.844;4.396;2023-03-31T07:52:38;13.30;99.90
23160;DHT22;11748;50.844;4.396;2023-03-31T07:55:05;13.30;99.90
23160;DHT22;11748;50.844;4.396;2023-03-31T07:57:34;13.30;99.90
23160;DHT22;11748;50.844;4.396;2023-03-31T08:00:00;13.40;99.90
23160;DHT22;11748;50.844;4.396;2023-03-31T08:02:31;13.20;99.90
23160;DHT22;11748;50.844;4.396;2023-03-31T08:04:58;13.20;99.90
23160;DHT22;11748;50.844;4.396;2023-03-31T08:07:23;13.40;99.90
23160;DHT22;11748;50.844;4.396;2023-03-31T08:09:50;13.50;99.90
23160;DHT22;11748;50.844;4.396;2023-03-31T08:12:16;13.50;99.90
23160;DHT22;11748;50.844;4.396;2023-03-31T08:14:42;13.60;99.90
23160;DHT22;11748;50.844;4.396;2023-03-31T08:17:08;13.40;99.90
23160;DHT22;11748;50.844;4.396;2023-03-31T08:19:35;13.60;99.90
23160;DHT22;11748;50.844;4.396;2023-03-31T08:22:02;13.60;99.90
23160;DHT22;11748;50.844;4.396;2023-03-31T08:24:27;13.70;99.90
23160;DHT22;11748;50.844;4.396;2023-03-31T08:26:53;13.80;99.90
23160;DHT22;11748;50.844;4.396;2023-03-31T08:29:19;13.40;99.90
23160;DHT22;11748;50.844;4.396;2023-03-31T08:31:44;13.20;99.90
23160;DHT22;11748;50.844;4.396;2023-03-31T08:34:10;13.40;99.90
23160;DHT22;11748;50.844;4.396;2023-03-31T08:36:36;13.50;99.90
23160;DHT22;11748;50.844;4.396;2023-03-31T08:39:02;13.50;99.90
23160;DHT22;11748;50.844;4.396;2023-03-31T08:41:58;13.50;99.90
23160;DHT22;11748;50.844;4.396;2023-03-31T08:44:59;13.60;99.90
23160;DHT22;11748;50.844;4.396;2023-03-31T08:47:29;13.70;99.90
23160;DHT22;11748;50.844;4.396;2023-03-31T08:50:04;13.70;99.90
23160;DHT22;11748;50.844;4.396;2023-03-31T08:52:35;13.70;99.90
23160;DHT22;11748;50.844;4.396;2023-03-31T08:55:07;13.90;99.90
23160;DHT22;11748;50.844;4.396;2023-03-31T08:58:03;13.90;99.90
23160;DHT22;11748;50.844;4.396;2023-03-31T09:00:42;14.10;99.90
23160;DHT22;11748;50.844;4.396;2023-03-31T09:05:56;14.30;99.90
23160;DHT22;11748;50.844;4.396;2023-03-31T09:08:32;14.40;99.90
23160;DHT22;11748;50.844;4.396;2023-03-31T09:11:34;14.30;99.90
23160;DHT22;11748;50.844;4.396;2023-03-31T09:16:37;14.30;99.90
23160;DHT22;11748;50.844;4.396;2023-03-31T09:19:15;14.10;99.90
23160;DHT22;11748;50.844;4.396;2023-03-31T09:21:46;14.10;99.90
23160;DHT22;11748;50.844;4.396;2023-03-31T09:26:54;14.40;99.90
23160;DHT22;11748;50.844;4.396;2023-03-31T09:29:30;14.60;99.90
23160;DHT22;11748;50.844;4.396;2023-03-31T09:34:38;14.70;99.90
23160;DHT22;11748;50.844;4.396;2023-03-31T09:37:03;14.90;99.90
23160;DHT22;11748;50.844;4.396;2023-03-31T09:39:29;15.00;99.90
23160;DHT22;11748;50.844;4.396;2023-03-31T09:41:55;15.10;99.90
23160;DHT22;11748;50.844;4.396;2023-03-31T09:44:46;15.20;99.90
23160;DHT22;11748;50.844;4.396;2023-03-31T09:47:19;15.20;99.90
23160;DHT22;11748;50.844;4.396;2023-03-31T09:49:46;15.30;99.90
23160;DHT22;11748;50.844;4.396;2023-03-31T09:52:21;15.00;99.90
23160;DHT22;11748;50.844;4.396;2023-03-31T09:54:52;15.00;99.90
23160;DHT22;11748;50.844;4.396;2023-03-31T09:57:37;14.60;99.90
23160;DHT22;11748;50.844;4.396;2023-03-31T10:00:12;14.60;99.90
23160;DHT22;11748;50.844;4.396;2023-03-31T10:02:42;14.60;99.90
23160;DHT22;11748;50.844;4.396;2023-03-31T10:08:13;14.60;99.90
23160;DHT22;11748;50.844;4.396;2023-03-31T10:10:37;14.80;99.90
23160;DHT22;11748;50.844;4.396;2023-03-31T10:13:08;14.70;99.90
23160;DHT22;11748;50.844;4.396;2023-03-31T10:15:38;14.40;99.90
23160;DHT22;11748;50.844;4.396;2023-03-31T10:18:04;14.50;99.90
23160;DHT22;11748;50.844;4.396;2023-03-31T10:20:36;14.60;99.90
23160;DHT22;11748;50.844;4.396;2023-03-31T10:23:37;14.50;99.90
23160;DHT22;11748;50.844;4.396;2023-03-31T10:25:56;14.50;99.90
23160;DHT22;11748;50.844;4.396;2023-03-31T10:28:23;14.30;99.90
23160;DHT22;11748;50.844;4.396;2023-03-31T10:30:55;14.50;99.90
23160;DHT22;11748;50.844;4.396;2023-03-31T10:33:24;14.70;99.90
23160;DHT22;11748;50.844;4.396;2023-03-31T10:35:58;14.80;99.90
23160;DHT22;11748;50.844;4.396;2023-03-31T10:38:29;14.80;99.90
23160;DHT22;11748;50.844;4.396;2023-03-31T10:40:57;14.90;99.90
23160;DHT22;11748;50.844;4.396;2023-03-31T10:43:29;14.80;99.90
23160;DHT22;11748;50.844;4.396;2023-03-31T10:45:58;14.80;99.90
23160;DHT22;11748;50.844;4.396;2023-03-31T10:48:32;14.90;99.90
23160;DHT22;11748;50.844;4.396;2023-03-31T10:53:45;15.10;99.90
23160;DHT22;11748;50.844;4.396;2023-03-31T10:56:14;14.90;99.90
23160;DHT22;11748;50.844;4.396;2023-03-31T11:09:28;14.50;99.90
23160;DHT22;11748;50.844;4.396;2023-03-31T11:15:21;14.80;99.90
23160;DHT22;11748;50.844;4.396;2023-03-31T11:20:14;15.00;99.90
23160;DHT22;11748;50.844;4.396;2023-03-31T11:22:53;15.00;99.90
23160;DHT22;11748;50.844;4.396;2023-03-31T11:28:23;14.80;99.90
23160;DHT22;11748;50.844;4.396;2023-03-31T11:39:59;15.20;99.90
23160;DHT22;11748;50.844;4.396;2023-03-31T11:42:33;15.00;99.90
23160;DHT22;11748;50.844;4.396;2023-03-31T11:45:27;15.10;99.90
23160;DHT22;11748;50.844;4.396;2023-03-31T11:47:58;15.30;99.90
23160;DHT22;11748;50.844;4.396;2023-03-31T11:50:30;15.20;99.90
23160;DHT22;11748;50.844;4.396;2023-03-31T11:53:04;15.10;99.90
23160;DHT22;11748;50.844;4.396;2023-03-31T11:55:31;15.20;99.90
23160;DHT22;11748;50.844;4.396;2023-03-31T11:58:03;15.20;99.90
23160;DHT22;11748;50.844;4.396;2023-03-31T12:00:52;15.20;99.90
23160;DHT22;11748;50.844;4.396;2023-03-31T12:03:22;15.00;99.90
23160;DHT22;11748;50.844;4.396;2023-03-31T12:06:11;15.00;99.90
23160;DHT22;11748;50.844;4.396;2023-03-31T12:11:49;14.40;99.90
23160;DHT22;11748;50.844;4.396;2023-03-31T12:17:22;13.90;99.90
23160;DHT22;11748;50.844;4.396;2023-03-31T12:19:53;13.40;99.90
23160;DHT22;11748;50.844;4.396;2023-03-31T12:24:50;13.30;99.90
23160;DHT22;11748;50.844;4.396;2023-03-31T12:32:31;12.90;99.90
23160;DHT22;11748;50.844;4.396;2023-03-31T12:43:20;12.90;99.90
23160;DHT22;11748;50.844;4.396;2023-03-31T12:46:22;13.10;99.90
23160;DHT22;11748;50.844;4.396;2023-03-31T12:54:18;13.50;99.90
23160;DHT22;11748;50.844;4.396;2023-03-31T12:59:33;13.60;99.90
23160;DHT22;11748;50.844;4.396;2023-03-31T13:04:41;13.60;99.90
23160;DHT22;11748;50.844;4.396;2023-03-31T13:07:34;13.70;99.90
23160;DHT22;11748;50.844;4.396;2023-03-31T13:12:39;13.70;99.90
23160;DHT22;11748;50.844;4.396;2023-03-31T13:15:12;14.00;99.90
23160;DHT22;11748;50.844;4.396;2023-03-31T13:17:39;13.90;99.90
23160;DHT22;11748;50.844;4.396;2023-03-31T13:20:25;13.90;99.90
23160;DHT22;11748;50.844;4.396;2023-03-31T13:30:58;13.30;99.90
23160;DHT22;11748;50.844;4.396;2023-03-31T13:33:42;13.40;99.90
23160;DHT22;11748;50.844;4.396;2023-03-31T14:04:00;12.80;99.90
23160;DHT22;11748;50.844;4.396;2023-03-31T14:07:08;12.90;99.90
23160;DHT22;11748;50.844;4.396;2023-03-31T14:09:39;12.90;99.90
23160;DHT22;11748;50.844;4.396;2023-03-31T14:12:31;12.80;99.90
23160;DHT22;11748;50.844;4.396;2023-03-31T14:14:57;12.70;99.90
23160;DHT22;11748;50.844;4.396;2023-03-31T14:17:27;12.80;99.90
23160;DHT22;11748;50.844;4.396;2023-03-31T14:25:50;12.40;99.90
23160;DHT22;11748;50.844;4.396;2023-03-31T14:34:11;12.90;99.90
23160;DHT22;11748;50.844;4.396;2023-03-31T14:37:05;13.00;99.90
23160;DHT22;11748;50.844;4.396;2023-03-31T14:39:46;13.10;99.90
23160;DHT22;11748;50.844;4.396;2023-03-31T14:42:18;13.20;99.90
23160;DHT22;11748;50.844;4.396;2023-03-31T14:44:46;13.30;99.90
23160;DHT22;11748;50.844;4.396;2023-03-31T14:47:20;13.40;99.90
23160;DHT22;11748;50.844;4.396;2023-03-31T14:49:46;13.50;99.90
23160;DHT22;11748;50.844;4.396;2023-03-31T14:52:20;13.50;99.90
23160;DHT22;11748;50.844;4.396;2023-03-31T14:54:48;13.50;99.90
23160;DHT22;11748;50.844;4.396;2023-03-31T14:57:19;13.20;99.90
23160;DHT22;11748;50.844;4.396;2023-03-31T14:59:49;13.20;99.90
23160;DHT22;11748;50.844;4.396;2023-03-31T15:02:21;13.10;99.90
23160;DHT22;11748;50.844;4.396;2023-03-31T15:04:50;13.00;99.90
23160;DHT22;11748;50.844;4.396;2023-03-31T15:07:16;13.00;99.90
23160;DHT22;11748;50.844;4.396;2023-03-31T15:09:47;12.80;99.90
23160;DHT22;11748;50.844;4.396;2023-03-31T15:12:16;12.80;99.90
23160;DHT22;11748;50.844;4.396;2023-03-31T15:15:00;12.80;99.90
23160;DHT22;11748;50.844;4.396;2023-03-31T15:17:31;12.70;99.90
23160;DHT22;11748;50.844;4.396;2023-03-31T15:20:16;12.80;99.90
23160;DHT22;11748;50.844;4.396;2023-03-31T15:22:45;12.80;99.90
23160;DHT22;11748;50.844;4.396;2023-03-31T15:25:14;12.80;99.90
23160;DHT22;11748;50.844;4.396;2023-03-31T15:27:48;12.70;99.90
23160;DHT22;11748;50.844;4.396;2023-03-31T15:30:18;12.80;99.90
23160;DHT22;11748;50.844;4.396;2023-03-31T15:32:45;12.70;99.90
23160;DHT22;11748;50.844;4.396;2023-03-31T15:37:54;12.80;99.90
23160;DHT22;11748;50.844;4.396;2023-03-31T15:40:35;12.80;99.90
23160;DHT22;11748;50.844;4.396;2023-03-31T15:43:18;13.00;99.90
23160;DHT22;11748;50.844;4.396;2023-03-31T15:45:54;12.80;99.90
23160;DHT22;11748;50.844;4.396;2023-03-31T15:48:32;12.70;99.90
23160;DHT22;11748;50.844;4.396;2023-03-31T15:51:23;12.80;99.90
23160;DHT22;11748;50.844;4.396;2023-03-31T15:53:51;12.70;99.90
23160;DHT22;11748;50.844;4.396;2023-03-31T15:56:34;12.70;99.90
23160;DHT22;11748;50.844;4.396;2023-03-31T16:01:51;12.80;99.90
23160;DHT22;11748;50.844;4.396;2023-03-31T16:04:18;12.60;99.90
23160;DHT22;11748;50.844;4.396;2023-03-31T16:06:53;12.50;99.90
23160;DHT22;11748;50.844;4.396;2023-03-31T16:09:28;12.60;99.90
23160;DHT22;11748;50.844;4.396;2023-03-31T16:12:03;12.50;99.90
23160;DHT22;11748;50.844;4.396;2023-03-31T16:14:38;12.60;99.90
23160;DHT22;11748;50.844;4.396;2023-03-31T16:17:12;12.50;99.90
23160;DHT22;11748;50.844;4.396;2023-03-31T16:19:46;12.50;99.90
23160;DHT22;11748;50.844;4.396;2023-03-31T16:22:20;12.30;99.90
23160;DHT22;11748;50.844;4.396;2023-03-31T16:24:47;12.30;99.90
23160;DHT22;11748;50.844;4.396;2023-03-31T16:27:13;12.30;99.90
23160;DHT22;11748;50.844;4.396;2023-03-31T16:29:39;12.20;99.90
23160;DHT22;11748;50.844;4.396;2023-03-31T16:32:10;12.10;99.90
23160;DHT22;11748;50.844;4.396;2023-03-31T16:34:54;12.00;99.90
23160;DHT22;11748;50.844;4.396;2023-03-31T16:37:21;12.00;99.90
23160;DHT22;11748;50.844;4.396;2023-03-31T16:39:47;12.10;99.90
23160;DHT22;11748;50.844;4.396;2023-03-31T16:42:13;12.00;99.90
23160;DHT22;11748;50.844;4.396;2023-03-31T16:44:39;12.00;99.90
23160;DHT22;11748;50.844;4.396;2023-03-31T16:47:05;12.20;99.90
23160;DHT22;11748;50.844;4.396;2023-03-31T16:49:31;12.10;99.90
23160;DHT22;11748;50.844;4.396;2023-03-31T16:51:57;12.00;99.90
23160;DHT22;11748;50.844;4.396;2023-03-31T16:54:23;12.10;99.90
23160;DHT22;11748;50.844;4.396;2023-03-31T16:56:49;12.20;99.90
23160;DHT22;11748;50.844;4.396;2023-03-31T16:59:15;12.20;99.90
23160;DHT22;11748;50.844;4.396;2023-03-31T17:01:41;12.10;99.90
23160;DHT22;11748;50.844;4.396;2023-03-31T17:04:07;12.10;99.90
23160;DHT22;11748;50.844;4.396;2023-03-31T17:06:33;12.00;99.90
23160;DHT22;11748;50.844;4.396;2023-03-31T17:08:58;12.00;99.90
23160;DHT22;11748;50.844;4.396;2023-03-31T17:11:26;12.00;99.90
23160;DHT22;11748;50.844;4.396;2023-03-31T17:13:51;12.20;99.90
23160;DHT22;11748;50.844;4.396;2023-03-31T17:16:19;12.10;99.90
23160;DHT22;11748;50.844;4.396;2023-03-31T17:18:45;12.10;99.90
23160;DHT22;11748;50.844;4.396;2023-03-31T17:21:13;11.80;99.90
23160;DHT22;11748;50.844;4.396;2023-03-31T17:23:39;11.80;99.90
23160;DHT22;11748;50.844;4.396;2023-03-31T17:26:06;11.80;99.90
23160;DHT22;11748;50.844;4.396;2023-03-31T17:28:34;11.70;99.90
23160;DHT22;11748;50.844;4.396;2023-03-31T17:31:00;11.60;99.90
23160;DHT22;11748;50.844;4.396;2023-03-31T17:33:27;11.70;99.90
23160;DHT22;11748;50.844;4.396;2023-03-31T17:35:56;11.60;99.90
23160;DHT22;11748;50.844;4.396;2023-03-31T17:38:24;11.50;99.90
23160;DHT22;11748;50.844;4.396;2023-03-31T17:40:49;11.60;99.90
23160;DHT22;11748;50.844;4.396;2023-03-31T17:43:15;11.50;99.90
23160;DHT22;11748;50.844;4.396;2023-03-31T17:45:41;11.30;99.90
23160;DHT22;11748;50.844;4.396;2023-03-31T17:48:07;11.30;99.90
23160;DHT22;11748;50.844;4.396;2023-03-31T17:50:34;11.30;99.90
23160;DHT22;11748;50.844;4.396;2023-03-31T17:53:01;11.40;99.90
23160;DHT22;11748;50.844;4.396;2023-03-31T17:55:35;11.40;99.90
23160;DHT22;11748;50.844;4.396;2023-03-31T17:58:04;11.40;99.90
23160;DHT22;11748;50.844;4.396;2023-03-31T18:00:32;11.30;99.90
23160;DHT22;11748;50.844;4.396;2023-03-31T18:02:58;11.10;99.90
23160;DHT22;11748;50.844;4.396;2023-03-31T18:05:25;11.10;99.90
23160;DHT22;11748;50.844;4.396;2023-03-31T18:07:54;11.20;99.90
23160;DHT22;11748;50.844;4.396;2023-03-31T18:10:20;11.10;99.90
23160;DHT22;11748;50.844;4.396;2023-03-31T18:12:47;11.10;99.90
23160;DHT22;11748;50.844;4.396;2023-03-31T18:15:12;11.10;99.90
23160;DHT22;11748;50.844;4.396;2023-03-31T18:17:38;11.10;99.90
23160;DHT22;11748;50.844;4.396;2023-03-31T18:20:04;11.00;99.90
23160;DHT22;11748;50.844;4.396;2023-03-31T18:22:31;11.00;99.90
23160;DHT22;11748;50.844;4.396;2023-03-31T18:25:00;11.00;99.90
23160;DHT22;11748;50.844;4.396;2023-03-31T18:27:25;11.00;99.90
23160;DHT22;11748;50.844;4.396;2023-03-31T18:29:51;11.10;99.90
23160;DHT22;11748;50.844;4.396;2023-03-31T18:32:17;11.00;99.90
23160;DHT22;11748;50.844;4.396;2023-03-31T18:34:43;11.00;99.90
23160;DHT22;11748;50.844;4.396;2023-03-31T18:37:09;10.90;99.90
23160;DHT22;11748;50.844;4.396;2023-03-31T18:39:34;11.00;99.90
23160;DHT22;11748;50.844;4.396;2023-03-31T18:42:00;11.00;99.90
23160;DHT22;11748;50.844;4.396;2023-03-31T18:44:27;11.10;99.90
23160;DHT22;11748;50.844;4.396;2023-03-31T18:46:52;11.00;99.90